createdAt,value
2019-02-19T00:00:47.387Z,1008.60
2019-02-19T00:01:47.374Z,1008.61
2019-02-19T00:02:47.364Z,1008.61
2019-02-19T00:03:47.356Z,1008.61
2019-02-19T00:04:47.378Z,1008.57
2019-02-19T00:05:56.312Z,1008.62
2019-02-19T00:06:47.360Z,1008.59
2019-02-19T00:07:47.307Z,1008.60
2019-02-19T00:08:47.302Z,1008.64
2019-02-19T00:09:47.286Z,1008.62
2019-02-19T00:10:47.274Z,1008.61
2019-02-19T00:11:47.304Z,1008.57
2019-02-19T00:12:47.251Z,1008.60
2019-02-19T00:13:47.243Z,1008.55
2019-02-19T00:14:47.230Z,1008.59
2019-02-19T00:15:47.218Z,1008.58
2019-02-19T00:16:47.210Z,1008.55
2019-02-19T00:17:47.210Z,1008.54
2019-02-19T00:18:47.185Z,1008.55
2019-02-19T00:19:47.172Z,1008.55
2019-02-19T00:20:47.160Z,1008.55
2019-02-19T00:21:47.155Z,1008.54
2019-02-19T00:22:47.150Z,1008.56
2019-02-19T00:23:47.140Z,1008.56
2019-02-19T00:24:47.119Z,1008.53
2019-02-19T00:25:47.110Z,1008.55
2019-02-19T00:26:47.094Z,1008.55
2019-02-19T00:27:47.082Z,1008.52
2019-02-19T00:28:47.115Z,1008.56
2019-02-19T00:29:47.063Z,1008.53
2019-02-19T00:30:47.049Z,1008.56
2019-02-19T00:31:47.039Z,1008.55
2019-02-19T00:32:47.047Z,1008.57
2019-02-19T00:33:47.023Z,1008.62
2019-02-19T00:34:47.024Z,1008.62
2019-02-19T00:35:46.993Z,1008.58
2019-02-19T00:36:46.992Z,1008.60
2019-02-19T00:37:46.973Z,1008.62
2019-02-19T00:38:46.972Z,1008.61
2019-02-19T00:39:46.962Z,1008.64
2019-02-19T00:40:46.958Z,1008.68
2019-02-19T00:41:46.926Z,1008.69
2019-02-19T00:42:46.915Z,1008.70
2019-02-19T00:43:46.903Z,1008.69
2019-02-19T00:44:46.894Z,1008.70
2019-02-19T00:45:46.912Z,1008.73
2019-02-19T00:46:46.878Z,1008.78
2019-02-19T00:47:46.858Z,1008.74
2019-02-19T00:48:46.847Z,1008.75
2019-02-19T00:49:46.841Z,1008.72
2019-02-19T00:50:46.827Z,1008.73
2019-02-19T00:51:46.841Z,1008.76
2019-02-19T00:52:46.833Z,1008.74
2019-02-19T00:53:46.806Z,1008.78
2019-02-19T00:54:46.781Z,1008.78
2019-02-19T00:55:46.770Z,1008.75
2019-02-19T00:56:46.758Z,1008.77
2019-02-19T00:57:46.756Z,1008.78
2019-02-19T00:58:46.742Z,1008.82
2019-02-19T00:59:46.723Z,1008.82
2019-02-19T01:00:46.715Z,1008.86
2019-02-19T01:01:46.703Z,1008.90
2019-02-19T01:02:46.711Z,1008.90
2019-02-19T01:03:46.681Z,1008.88
2019-02-19T01:04:46.692Z,1008.84
2019-02-19T01:05:46.657Z,1008.84
2019-02-19T01:06:46.644Z,1008.85
2019-02-19T01:07:46.638Z,1008.92
2019-02-19T01:08:46.655Z,1008.91
2019-02-19T01:09:46.611Z,1008.91
2019-02-19T01:10:46.616Z,1008.96
2019-02-19T01:11:46.590Z,1008.96
2019-02-19T01:12:46.578Z,1008.94
2019-02-19T01:13:46.580Z,1008.98
2019-02-19T01:14:46.572Z,1008.98
2019-02-19T01:15:46.545Z,1008.97
2019-02-19T01:16:46.565Z,1008.97
2019-02-19T01:17:46.522Z,1008.91
2019-02-19T01:18:46.511Z,1008.93
2019-02-19T01:19:46.501Z,1008.98
2019-02-19T01:20:46.503Z,1008.97
2019-02-19T01:21:46.493Z,1008.96
2019-02-19T01:22:46.504Z,1008.92
2019-02-19T01:23:46.456Z,1008.96
2019-02-19T01:24:46.456Z,1008.96
2019-02-19T01:25:46.432Z,1008.92
2019-02-19T01:26:46.430Z,1008.93
2019-02-19T01:27:46.414Z,1008.96
2019-02-19T01:28:46.405Z,1008.93
2019-02-19T01:29:46.388Z,1008.99
2019-02-19T01:30:46.375Z,1008.95
2019-02-19T01:31:46.379Z,1008.90
2019-02-19T01:32:46.354Z,1008.92
2019-02-19T01:33:46.366Z,1008.92
2019-02-19T01:34:46.334Z,1008.97
2019-02-19T01:35:46.322Z,1008.99
2019-02-19T01:36:46.339Z,1008.95
2019-02-19T01:37:46.309Z,1009.00
2019-02-19T01:38:46.286Z,1008.97
2019-02-19T01:39:47.860Z,1008.94
2019-02-19T01:40:46.262Z,1009.00
2019-02-19T01:41:46.251Z,1009.00
2019-02-19T01:42:46.242Z,1008.96
2019-02-19T01:43:46.244Z,1008.92
2019-02-19T01:44:46.235Z,1008.96
2019-02-19T01:45:46.214Z,1008.95
2019-02-19T01:46:46.195Z,1008.89
2019-02-19T01:47:46.189Z,1008.89
2019-02-19T01:48:46.173Z,1008.91
2019-02-19T01:49:46.161Z,1008.93
2019-02-19T01:50:46.160Z,1008.91
2019-02-19T01:51:46.150Z,1008.86
2019-02-19T01:52:46.131Z,1008.90
2019-02-19T01:53:46.116Z,1008.91
2019-02-19T01:54:46.124Z,1008.92
2019-02-19T01:55:46.098Z,1008.96
2019-02-19T01:56:46.082Z,1008.98
2019-02-19T01:57:46.087Z,1008.99
2019-02-19T01:58:46.061Z,1009.00
2019-02-19T01:59:46.048Z,1009.05
2019-02-19T02:00:46.052Z,1009.05
2019-02-19T02:01:46.027Z,1009.04
2019-02-19T02:02:46.069Z,1009.05
2019-02-19T02:03:46.005Z,1009.04
2019-02-19T02:04:46.025Z,1008.99
2019-02-19T02:05:46.017Z,1009.01
2019-02-19T02:06:46.016Z,1009.00
2019-02-19T02:07:45.967Z,1008.98
2019-02-19T02:08:45.974Z,1008.98
2019-02-19T02:09:45.941Z,1008.99
2019-02-19T02:10:45.925Z,1008.98
2019-02-19T02:11:45.931Z,1009.01
2019-02-19T02:12:45.908Z,1009.00
2019-02-19T02:13:45.891Z,1008.98
2019-02-19T02:14:45.879Z,1009.01
2019-02-19T02:15:45.872Z,1009.01
2019-02-19T02:16:45.857Z,1009.01
2019-02-19T02:17:45.858Z,1008.99
2019-02-19T02:18:45.842Z,1008.97
2019-02-19T02:19:45.838Z,1009.04
2019-02-19T02:20:45.812Z,1009.02
2019-02-19T02:21:45.801Z,1008.95
2019-02-19T02:22:45.793Z,1008.94
2019-02-19T02:23:45.789Z,1008.93
2019-02-19T02:24:45.798Z,1008.99
2019-02-19T02:25:45.757Z,1008.96
2019-02-19T02:26:45.746Z,1008.91
2019-02-19T02:27:45.746Z,1008.92
2019-02-19T02:28:45.722Z,1008.94
2019-02-19T02:29:45.711Z,1008.90
2019-02-19T02:30:45.709Z,1008.95
2019-02-19T02:31:45.694Z,1008.93
2019-02-19T02:32:45.681Z,1008.92
2019-02-19T02:33:45.709Z,1008.93
2019-02-19T02:34:45.662Z,1008.89
2019-02-19T02:35:45.645Z,1008.90
2019-02-19T02:36:45.653Z,1008.92
2019-02-19T02:37:45.626Z,1008.91
2019-02-19T02:38:45.615Z,1008.96
2019-02-19T02:39:45.621Z,1008.95
2019-02-19T02:40:45.591Z,1008.93
2019-02-19T02:41:45.590Z,1008.97
2019-02-19T02:42:45.569Z,1008.91
2019-02-19T02:43:45.563Z,1008.91
2019-02-19T02:44:45.546Z,1008.97
2019-02-19T02:45:52.665Z,1008.95
2019-02-19T02:46:46.548Z,1008.94
2019-02-19T02:47:45.518Z,1008.96
2019-02-19T02:48:45.543Z,1008.98
2019-02-19T02:49:45.528Z,1008.96
2019-02-19T02:50:45.513Z,1008.99
2019-02-19T02:51:45.466Z,1008.95
2019-02-19T02:52:45.492Z,1008.94
2019-02-19T02:53:45.479Z,1008.94
2019-02-19T02:54:45.457Z,1008.94
2019-02-19T02:55:45.424Z,1008.94
2019-02-19T02:56:45.430Z,1008.99
2019-02-19T02:57:45.404Z,1009.01
2019-02-19T02:58:45.407Z,1009.03
2019-02-19T02:59:45.375Z,1009.09
2019-02-19T03:00:45.390Z,1009.07
2019-02-19T03:01:45.388Z,1009.08
2019-02-19T03:02:45.382Z,1009.05
2019-02-19T03:03:45.333Z,1009.11
2019-02-19T03:04:45.331Z,1009.08
2019-02-19T03:05:45.317Z,1009.07
2019-02-19T03:06:45.324Z,1009.08
2019-02-19T03:07:45.283Z,1009.09
2019-02-19T03:08:45.323Z,1009.06
2019-02-19T03:09:45.281Z,1009.09
2019-02-19T03:10:45.290Z,1009.05
2019-02-19T03:11:45.242Z,1009.06
2019-02-19T03:12:45.252Z,1009.10
2019-02-19T03:13:45.257Z,1009.07
2019-02-19T03:14:45.208Z,1009.07
2019-02-19T03:15:45.200Z,1009.03
2019-02-19T03:16:45.209Z,1009.01
2019-02-19T03:17:45.211Z,1009.00
2019-02-19T03:18:45.174Z,1009.01
2019-02-19T03:19:45.175Z,1009.00
2019-02-19T03:20:45.146Z,1009.03
2019-02-19T03:21:45.147Z,1009.01
2019-02-19T03:22:45.139Z,1009.02
2019-02-19T03:23:45.108Z,1009.04
2019-02-19T03:24:45.108Z,1009.10
2019-02-19T03:25:45.114Z,1009.10
2019-02-19T03:26:45.073Z,1009.11
2019-02-19T03:27:45.063Z,1009.08
2019-02-19T03:28:45.051Z,1009.14
2019-02-19T03:29:45.037Z,1009.13
2019-02-19T03:30:45.032Z,1009.24
2019-02-19T03:31:45.024Z,1009.22
2019-02-19T03:32:45.025Z,1009.29
2019-02-19T03:33:45.004Z,1009.31
2019-02-19T03:34:44.985Z,1009.35
2019-02-19T03:35:44.968Z,1009.37
2019-02-19T03:36:44.971Z,1009.29
2019-02-19T03:37:44.957Z,1009.23
2019-02-19T03:38:44.956Z,1009.25
2019-02-19T03:39:44.958Z,1009.19
2019-02-19T03:40:44.950Z,1009.19
2019-02-19T03:41:44.918Z,1009.19
2019-02-19T03:42:44.930Z,1009.20
2019-02-19T03:43:44.902Z,1009.23
2019-02-19T03:44:44.888Z,1009.27
2019-02-19T03:45:44.875Z,1009.23
2019-02-19T03:46:44.899Z,1009.18
2019-02-19T03:47:44.892Z,1009.13
2019-02-19T03:48:44.862Z,1009.14
2019-02-19T03:49:44.820Z,1009.11
2019-02-19T03:50:44.825Z,1009.16
2019-02-19T03:51:44.816Z,1009.22
2019-02-19T03:52:44.783Z,1009.22
2019-02-19T03:53:44.770Z,1009.20
2019-02-19T03:54:44.801Z,1009.19
2019-02-19T03:55:44.778Z,1009.19
2019-02-19T03:56:44.755Z,1009.15
2019-02-19T03:57:44.726Z,1009.14
2019-02-19T03:58:44.727Z,1009.18
2019-02-19T03:59:44.704Z,1009.18
2019-02-19T04:00:44.752Z,1009.14
2019-02-19T04:01:44.722Z,1009.16
2019-02-19T04:02:44.683Z,1009.15
2019-02-19T04:03:44.656Z,1009.14
2019-02-19T04:04:44.654Z,1009.12
2019-02-19T04:05:44.667Z,1009.12
2019-02-19T04:06:44.641Z,1009.06
2019-02-19T04:07:44.611Z,1009.10
2019-02-19T04:08:44.611Z,1009.11
2019-02-19T04:09:44.589Z,1009.07
2019-02-19T04:10:44.578Z,1009.10
2019-02-19T04:11:44.645Z,1009.09
2019-02-19T04:12:44.574Z,1009.16
2019-02-19T04:13:44.574Z,1009.17
2019-02-19T04:14:44.538Z,1009.14
2019-02-19T04:15:44.526Z,1009.10
2019-02-19T04:16:44.561Z,1009.14
2019-02-19T04:17:44.514Z,1009.21
2019-02-19T04:18:44.491Z,1009.19
2019-02-19T04:19:44.522Z,1009.20
2019-02-19T04:20:44.460Z,1009.20
2019-02-19T04:21:44.469Z,1009.13
2019-02-19T04:22:44.441Z,1009.17
2019-02-19T04:23:44.431Z,1009.19
2019-02-19T04:24:44.440Z,1009.22
2019-02-19T04:25:44.405Z,1009.17
2019-02-19T04:26:44.392Z,1009.22
2019-02-19T04:27:44.382Z,1009.22
2019-02-19T04:28:44.370Z,1009.21
2019-02-19T04:29:44.364Z,1009.26
2019-02-19T04:30:44.368Z,1009.25
2019-02-19T04:31:44.336Z,1009.22
2019-02-19T04:32:44.326Z,1009.21
2019-02-19T04:33:44.314Z,1009.24
2019-02-19T04:34:44.302Z,1009.23
2019-02-19T04:35:44.319Z,1009.26
2019-02-19T04:36:44.318Z,1009.28
2019-02-19T04:37:44.270Z,1009.27
2019-02-19T04:38:44.268Z,1009.28
2019-02-19T04:39:44.247Z,1009.32
2019-02-19T04:40:44.237Z,1009.36
2019-02-19T04:41:44.240Z,1009.34
2019-02-19T04:42:44.256Z,1009.32
2019-02-19T04:43:44.217Z,1009.35
2019-02-19T04:44:44.198Z,1009.32
2019-02-19T04:45:44.197Z,1009.32
2019-02-19T04:46:44.168Z,1009.32
2019-02-19T04:47:44.169Z,1009.29
2019-02-19T04:48:44.192Z,1009.37
2019-02-19T04:49:44.134Z,1009.38
2019-02-19T04:50:44.124Z,1009.39
2019-02-19T04:51:44.113Z,1009.33
2019-02-19T04:52:44.124Z,1009.34
2019-02-19T04:53:44.090Z,1009.32
2019-02-19T04:54:44.085Z,1009.31
2019-02-19T04:55:44.133Z,1009.34
2019-02-19T04:56:44.093Z,1009.36
2019-02-19T04:57:44.045Z,1009.31
2019-02-19T04:58:44.056Z,1009.30
2019-02-19T04:59:44.023Z,1009.32
2019-02-19T05:00:44.011Z,1009.31
2019-02-19T05:01:44.014Z,1009.35
2019-02-19T05:02:43.988Z,1009.40
2019-02-19T05:03:43.991Z,1009.37
2019-02-19T05:04:43.971Z,1009.40
2019-02-19T05:05:43.982Z,1009.40
2019-02-19T05:06:43.957Z,1009.38
2019-02-19T05:07:43.933Z,1009.36
2019-02-19T05:08:44.597Z,1009.36
2019-02-19T05:09:43.911Z,1009.32
2019-02-19T05:10:43.899Z,1009.35
2019-02-19T05:11:43.897Z,1009.35
2019-02-19T05:12:43.896Z,1009.37
2019-02-19T05:13:43.865Z,1009.40
2019-02-19T05:14:43.853Z,1009.43
2019-02-19T05:15:43.892Z,1009.43
2019-02-19T05:16:43.832Z,1009.46
2019-02-19T05:17:43.837Z,1009.43
2019-02-19T05:18:43.820Z,1009.42
2019-02-19T05:19:43.799Z,1009.37
2019-02-19T05:20:43.786Z,1009.42
2019-02-19T05:21:43.776Z,1009.42
2019-02-19T05:22:43.762Z,1009.45
2019-02-19T05:23:43.770Z,1009.47
2019-02-19T05:24:43.750Z,1009.41
2019-02-19T05:25:43.743Z,1009.43
2019-02-19T05:26:43.721Z,1009.50
2019-02-19T05:27:43.712Z,1009.53
2019-02-19T05:28:43.704Z,1009.54
2019-02-19T05:29:43.700Z,1009.55
2019-02-19T05:30:43.704Z,1009.58
2019-02-19T05:31:43.662Z,1009.53
2019-02-19T05:32:43.663Z,1009.56
2019-02-19T05:33:43.641Z,1009.58
2019-02-19T05:34:43.628Z,1009.60
2019-02-19T05:35:43.628Z,1009.59
2019-02-19T05:36:43.635Z,1009.54
2019-02-19T05:37:43.593Z,1009.54
2019-02-19T05:38:43.586Z,1009.57
2019-02-19T05:39:43.588Z,1009.56
2019-02-19T05:40:43.610Z,1009.53
2019-02-19T05:41:43.571Z,1009.55
2019-02-19T05:42:43.557Z,1009.55
2019-02-19T05:43:43.532Z,1009.53
2019-02-19T05:44:43.534Z,1009.57
2019-02-19T05:45:43.546Z,1009.58
2019-02-19T05:46:49.733Z,1009.62
2019-02-19T05:47:44.514Z,1009.58
2019-02-19T05:48:43.478Z,1009.59
2019-02-19T05:49:43.548Z,1009.57
2019-02-19T05:50:43.460Z,1009.61
2019-02-19T05:51:43.443Z,1009.56
2019-02-19T05:52:43.440Z,1009.64
2019-02-19T05:53:44.857Z,1009.64
2019-02-19T05:54:43.411Z,1009.66
2019-02-19T05:55:43.410Z,1009.64
2019-02-19T05:56:43.394Z,1009.66
2019-02-19T05:57:43.375Z,1009.66
2019-02-19T05:58:43.368Z,1009.71
2019-02-19T05:59:43.354Z,1009.63
2019-02-19T06:00:43.401Z,1009.59
2019-02-19T06:01:43.363Z,1009.58
2019-02-19T06:02:43.348Z,1009.59
2019-02-19T06:03:43.315Z,1009.58
2019-02-19T06:04:43.299Z,1009.58
2019-02-19T06:05:43.318Z,1009.56
2019-02-19T06:06:43.302Z,1009.60
2019-02-19T06:07:43.272Z,1009.61
2019-02-19T06:08:43.255Z,1009.55
2019-02-19T06:09:43.241Z,1009.60
2019-02-19T06:10:44.187Z,1009.58
2019-02-19T06:11:43.231Z,1009.60
2019-02-19T06:12:43.250Z,1009.63
2019-02-19T06:13:43.197Z,1009.65
2019-02-19T06:14:43.203Z,1009.68
2019-02-19T06:15:43.171Z,1009.67
2019-02-19T06:16:43.167Z,1009.73
2019-02-19T06:17:43.177Z,1009.74
2019-02-19T06:18:43.162Z,1009.64
2019-02-19T06:19:43.130Z,1009.71
2019-02-19T06:20:43.115Z,1009.75
2019-02-19T06:21:43.103Z,1009.74
2019-02-19T06:22:43.098Z,1009.77
2019-02-19T06:23:43.083Z,1009.74
2019-02-19T06:24:43.106Z,1009.77
2019-02-19T06:25:43.060Z,1009.79
2019-02-19T06:26:43.054Z,1009.82
2019-02-19T06:27:43.047Z,1009.83
2019-02-19T06:28:43.042Z,1009.83
2019-02-19T06:29:43.030Z,1009.93
2019-02-19T06:30:43.024Z,1009.93
2019-02-19T06:31:42.992Z,1010.00
2019-02-19T06:32:42.979Z,1009.96
2019-02-19T06:33:42.966Z,1010.03
2019-02-19T06:34:42.974Z,1010.03
2019-02-19T06:35:43.026Z,1010.06
2019-02-19T06:36:42.941Z,1010.03
2019-02-19T06:37:42.951Z,1010.03
2019-02-19T06:38:42.910Z,1010.09
2019-02-19T06:39:42.897Z,1010.12
2019-02-19T06:40:42.891Z,1010.11
2019-02-19T06:41:42.896Z,1010.14
2019-02-19T06:42:42.865Z,1010.12
2019-02-19T06:43:42.859Z,1010.16
2019-02-19T06:44:42.871Z,1010.14
2019-02-19T06:45:42.835Z,1010.16
2019-02-19T06:46:42.820Z,1010.10
2019-02-19T06:47:42.826Z,1010.16
2019-02-19T06:48:42.801Z,1010.18
2019-02-19T06:49:42.836Z,1010.17
2019-02-19T06:50:42.779Z,1010.25
2019-02-19T06:51:42.770Z,1010.22
2019-02-19T06:52:42.754Z,1010.28
2019-02-19T06:53:42.764Z,1010.30
2019-02-19T06:54:42.735Z,1010.28
2019-02-19T06:55:42.722Z,1010.29
2019-02-19T06:56:42.745Z,1010.28
2019-02-19T06:57:42.699Z,1010.34
2019-02-19T06:58:42.695Z,1010.27
2019-02-19T06:59:42.684Z,1010.27
2019-02-19T07:00:42.667Z,1010.29
2019-02-19T07:01:42.653Z,1010.25
2019-02-19T07:02:42.638Z,1010.33
2019-02-19T07:03:42.681Z,1010.32
2019-02-19T07:04:42.643Z,1010.35
2019-02-19T07:05:42.608Z,1010.35
2019-02-19T07:06:42.596Z,1010.34
2019-02-19T07:07:42.587Z,1010.36
2019-02-19T07:08:42.576Z,1010.37
2019-02-19T07:09:42.604Z,1010.41
2019-02-19T07:10:42.566Z,1010.42
2019-02-19T07:11:42.541Z,1010.42
2019-02-19T07:12:42.580Z,1010.47
2019-02-19T07:13:42.548Z,1010.45
2019-02-19T07:14:42.503Z,1010.53
2019-02-19T07:15:42.515Z,1010.56
2019-02-19T07:16:42.491Z,1010.60
2019-02-19T07:17:42.482Z,1010.60
2019-02-19T07:18:42.469Z,1010.64
2019-02-19T07:19:42.451Z,1010.65
2019-02-19T07:20:42.443Z,1010.67
2019-02-19T07:21:42.460Z,1010.71
2019-02-19T07:22:42.428Z,1010.64
2019-02-19T07:23:42.403Z,1010.71
2019-02-19T07:24:42.392Z,1010.70
2019-02-19T07:25:42.426Z,1010.72
2019-02-19T07:26:42.379Z,1010.78
2019-02-19T07:27:42.362Z,1010.76
2019-02-19T07:28:42.395Z,1010.76
2019-02-19T07:29:42.342Z,1010.80
2019-02-19T07:30:42.328Z,1010.80
2019-02-19T07:31:42.328Z,1010.83
2019-02-19T07:32:42.304Z,1010.79
2019-02-19T07:33:42.316Z,1010.82
2019-02-19T07:34:42.281Z,1010.79
2019-02-19T07:35:42.272Z,1010.80
2019-02-19T07:36:42.287Z,1010.84
2019-02-19T07:37:42.252Z,1010.83
2019-02-19T07:38:42.243Z,1010.79
2019-02-19T07:39:42.253Z,1010.80
2019-02-19T07:40:42.215Z,1010.81
2019-02-19T07:41:42.204Z,1010.81
2019-02-19T07:42:42.190Z,1010.83
2019-02-19T07:43:42.202Z,1010.85
2019-02-19T07:44:42.167Z,1010.87
2019-02-19T07:45:42.175Z,1010.84
2019-02-19T07:46:42.146Z,1010.89
2019-02-19T07:47:42.134Z,1010.92
2019-02-19T07:48:42.121Z,1010.93
2019-02-19T07:49:42.175Z,1010.92
2019-02-19T07:50:42.100Z,1010.90
2019-02-19T07:51:42.755Z,1010.92
2019-02-19T07:52:42.077Z,1010.95
2019-02-19T07:53:42.073Z,1010.90
2019-02-19T07:54:42.059Z,1010.93
2019-02-19T07:55:42.078Z,1010.93
2019-02-19T07:56:42.072Z,1010.91
2019-02-19T07:57:42.930Z,1010.87
2019-02-19T07:58:42.015Z,1010.90
2019-02-19T07:59:42.000Z,1010.90
2019-02-19T08:00:41.996Z,1010.94
2019-02-19T08:01:42.018Z,1010.91
2019-02-19T08:02:41.976Z,1010.94
2019-02-19T08:03:41.957Z,1010.97
2019-02-19T08:04:41.945Z,1011.02
2019-02-19T08:05:41.933Z,1011.00
2019-02-19T08:06:41.931Z,1010.94
2019-02-19T08:07:41.944Z,1010.98
2019-02-19T08:08:41.900Z,1010.99
2019-02-19T08:09:41.889Z,1010.96
2019-02-19T08:10:41.876Z,1010.93
2019-02-19T08:11:41.869Z,1010.92
2019-02-19T08:12:41.856Z,1010.92
2019-02-19T08:13:41.874Z,1010.94
2019-02-19T08:14:41.838Z,1010.95
2019-02-19T08:15:41.820Z,1010.90
2019-02-19T08:16:41.813Z,1010.95
2019-02-19T08:17:41.803Z,1010.97
2019-02-19T08:18:41.793Z,1010.99
2019-02-19T08:19:41.806Z,1010.99
2019-02-19T08:20:41.771Z,1010.98
2019-02-19T08:21:41.756Z,1011.01
2019-02-19T08:22:41.742Z,1011.01
2019-02-19T08:23:41.733Z,1010.94
2019-02-19T08:24:41.722Z,1010.98
2019-02-19T08:25:41.752Z,1011.00
2019-02-19T08:26:41.697Z,1011.07
2019-02-19T08:27:41.686Z,1011.08
2019-02-19T08:28:41.676Z,1011.06
2019-02-19T08:29:41.665Z,1011.15
2019-02-19T08:30:41.655Z,1011.10
2019-02-19T08:31:41.680Z,1011.21
2019-02-19T08:32:41.630Z,1011.16
2019-02-19T08:33:41.629Z,1011.23
2019-02-19T08:34:41.609Z,1011.08
2019-02-19T08:35:41.603Z,1011.05
2019-02-19T08:36:41.585Z,1011.32
2019-02-19T08:37:41.622Z,1011.25
2019-02-19T08:38:42.997Z,1011.13
2019-02-19T08:39:41.560Z,1011.12
2019-02-19T08:40:41.542Z,1011.14
2019-02-19T08:41:41.529Z,1011.05
2019-02-19T08:42:41.532Z,1011.09
2019-02-19T08:43:41.528Z,1011.17
2019-02-19T08:44:41.523Z,1011.13
2019-02-19T08:45:41.483Z,1011.18
2019-02-19T08:46:41.471Z,1011.16
2019-02-19T08:47:42.938Z,1011.14
2019-02-19T08:48:41.480Z,1011.09
2019-02-19T08:49:41.456Z,1011.17
2019-02-19T08:50:41.442Z,1011.09
2019-02-19T08:51:41.425Z,1011.16
2019-02-19T08:52:41.407Z,1011.09
2019-02-19T08:53:41.396Z,1011.22
2019-02-19T08:54:41.381Z,1011.17
2019-02-19T08:55:41.383Z,1011.17
2019-02-19T08:56:41.390Z,1011.17
2019-02-19T08:57:41.348Z,1011.14
2019-02-19T08:58:41.336Z,1011.15
2019-02-19T08:59:41.324Z,1011.14
2019-02-19T09:00:41.312Z,1011.11
2019-02-19T09:01:50.469Z,1011.19
2019-02-19T09:02:41.294Z,1011.17
2019-02-19T09:03:48.907Z,1011.17
2019-02-19T09:04:49.001Z,1011.20
2019-02-19T09:05:48.967Z,1011.16
2019-02-19T09:06:48.965Z,1011.24
2019-02-19T09:07:41.288Z,1011.21
2019-02-19T09:08:48.402Z,1011.24
2019-02-19T09:09:48.943Z,1011.32
2019-02-19T09:10:41.214Z,1011.22
2019-02-19T09:11:48.376Z,1011.28
2019-02-19T09:12:41.234Z,1011.26
2019-02-19T09:13:41.170Z,1011.23
2019-02-19T09:14:41.211Z,1011.26
2019-02-19T09:15:41.150Z,1011.31
2019-02-19T09:16:41.135Z,1011.26
2019-02-19T09:17:41.199Z,1011.24
2019-02-19T09:18:41.206Z,1011.29
2019-02-19T09:19:41.241Z,1011.26
2019-02-19T09:20:41.100Z,1011.30
2019-02-19T09:21:41.114Z,1011.32
2019-02-19T09:22:41.115Z,1011.33
2019-02-19T09:23:42.315Z,1011.31
2019-02-19T09:24:41.046Z,1011.33
2019-02-19T09:25:41.068Z,1011.29
2019-02-19T09:26:41.027Z,1011.36
2019-02-19T09:27:41.025Z,1011.35
2019-02-19T09:28:41.001Z,1011.36
2019-02-19T09:29:40.990Z,1011.38
2019-02-19T09:30:41.010Z,1011.31
2019-02-19T09:31:40.980Z,1011.29
2019-02-19T09:32:40.959Z,1011.34
2019-02-19T09:33:40.958Z,1011.34
2019-02-19T09:34:40.938Z,1011.31
2019-02-19T09:35:40.923Z,1011.34
2019-02-19T09:36:40.950Z,1011.29
2019-02-19T09:37:40.903Z,1011.31
2019-02-19T09:38:40.902Z,1011.37
2019-02-19T09:39:40.891Z,1011.35
2019-02-19T09:40:40.868Z,1011.37
2019-02-19T09:41:40.857Z,1011.34
2019-02-19T09:42:40.876Z,1011.42
2019-02-19T09:43:40.834Z,1011.44
2019-02-19T09:44:40.839Z,1011.43
2019-02-19T09:45:40.811Z,1011.42
2019-02-19T09:46:40.801Z,1011.44
2019-02-19T09:47:40.794Z,1011.51
2019-02-19T09:48:40.817Z,1011.56
2019-02-19T09:49:40.768Z,1011.62
2019-02-19T09:50:40.766Z,1011.54
2019-02-19T09:51:40.758Z,1011.59
2019-02-19T09:52:40.747Z,1011.60
2019-02-19T09:53:40.743Z,1011.53
2019-02-19T09:54:40.741Z,1011.53
2019-02-19T09:55:40.705Z,1011.58
2019-02-19T09:56:40.689Z,1011.49
2019-02-19T09:57:40.745Z,1011.55
2019-02-19T09:58:40.667Z,1011.61
2019-02-19T09:59:40.659Z,1011.60
2019-02-19T10:00:40.685Z,1011.49
2019-02-19T10:01:40.635Z,1011.59
2019-02-19T10:02:40.623Z,1011.51
2019-02-19T10:03:40.627Z,1011.65
2019-02-19T10:04:40.601Z,1011.58
2019-02-19T10:05:40.589Z,1011.63
2019-02-19T10:06:40.608Z,1011.57
2019-02-19T10:07:40.582Z,1011.60
2019-02-19T10:08:40.578Z,1011.52
2019-02-19T10:09:40.544Z,1011.57
2019-02-19T10:10:40.545Z,1011.49
2019-02-19T10:11:40.521Z,1011.53
2019-02-19T10:12:40.539Z,1011.55
2019-02-19T10:13:40.500Z,1011.51
2019-02-19T10:14:40.507Z,1011.52
2019-02-19T10:15:40.478Z,1011.56
2019-02-19T10:16:41.829Z,1011.63
2019-02-19T10:17:40.464Z,1011.62
2019-02-19T10:18:40.460Z,1011.57
2019-02-19T10:19:40.457Z,1011.59
2019-02-19T10:20:40.422Z,1011.64
2019-02-19T10:21:40.414Z,1011.61
2019-02-19T10:22:40.403Z,1011.58
2019-02-19T10:23:40.389Z,1011.65
2019-02-19T10:24:40.408Z,1011.66
2019-02-19T10:25:40.381Z,1011.68
2019-02-19T10:26:40.802Z,1011.63
2019-02-19T10:27:40.344Z,1011.65
2019-02-19T10:28:40.334Z,1011.65
2019-02-19T10:29:40.322Z,1011.59
2019-02-19T10:30:40.354Z,1011.60
2019-02-19T10:31:40.316Z,1011.61
2019-02-19T10:32:40.289Z,1011.63
2019-02-19T10:33:40.277Z,1011.67
2019-02-19T10:34:40.266Z,1011.66
2019-02-19T10:35:40.258Z,1011.65
2019-02-19T10:36:40.297Z,1011.64
2019-02-19T10:37:40.259Z,1011.74
2019-02-19T10:38:40.222Z,1011.71
2019-02-19T10:39:40.225Z,1011.70
2019-02-19T10:40:40.200Z,1011.76
2019-02-19T10:41:40.200Z,1011.73
2019-02-19T10:42:40.210Z,1011.73
2019-02-19T10:43:40.178Z,1011.68
2019-02-19T10:44:40.154Z,1011.79
2019-02-19T10:45:40.154Z,1011.77
2019-02-19T10:46:40.138Z,1011.75
2019-02-19T10:47:40.126Z,1011.76
2019-02-19T10:48:40.151Z,1011.73
2019-02-19T10:49:40.115Z,1011.78
2019-02-19T10:50:40.101Z,1011.76
2019-02-19T10:51:40.076Z,1011.77
2019-02-19T10:52:40.067Z,1011.72
2019-02-19T10:53:40.054Z,1011.78
2019-02-19T10:54:40.090Z,1011.79
2019-02-19T10:55:40.031Z,1011.73
2019-02-19T10:56:40.037Z,1011.75
2019-02-19T10:57:40.010Z,1011.77
2019-02-19T10:58:40.024Z,1011.76
2019-02-19T10:59:39.991Z,1011.82
2019-02-19T11:00:39.995Z,1011.84
2019-02-19T11:01:40.008Z,1011.80
2019-02-19T11:02:39.956Z,1011.80
2019-02-19T11:03:39.944Z,1011.77
2019-02-19T11:04:40.081Z,1011.83
2019-02-19T11:05:39.920Z,1011.85
2019-02-19T11:06:39.955Z,1011.82
2019-02-19T11:07:39.915Z,1011.86
2019-02-19T11:08:39.887Z,1011.81
2019-02-19T11:09:39.873Z,1011.79
2019-02-19T11:10:39.862Z,1011.82
2019-02-19T11:11:39.851Z,1011.83
2019-02-19T11:12:39.900Z,1011.85
2019-02-19T11:13:39.840Z,1011.79
2019-02-19T11:14:39.823Z,1011.83
2019-02-19T11:15:39.809Z,1011.78
2019-02-19T11:16:39.799Z,1011.76
2019-02-19T11:17:39.785Z,1011.78
2019-02-19T11:18:39.827Z,1011.76
2019-02-19T11:19:39.763Z,1011.77
2019-02-19T11:20:39.752Z,1011.74
2019-02-19T11:21:39.738Z,1011.80
2019-02-19T11:22:39.761Z,1011.80
2019-02-19T11:23:39.720Z,1011.78
2019-02-19T11:24:39.745Z,1011.74
2019-02-19T11:25:39.706Z,1011.80
2019-02-19T11:26:39.683Z,1011.79
2019-02-19T11:27:39.671Z,1011.79
2019-02-19T11:28:41.065Z,1011.76
2019-02-19T11:29:39.650Z,1011.77
2019-02-19T11:30:39.683Z,1011.77
2019-02-19T11:31:39.645Z,1011.70
2019-02-19T11:32:39.616Z,1011.70
2019-02-19T11:33:39.614Z,1011.70
2019-02-19T11:34:39.592Z,1011.77
2019-02-19T11:35:39.580Z,1011.69
2019-02-19T11:36:39.606Z,1011.69
2019-02-19T11:37:39.568Z,1011.69
2019-02-19T11:38:39.552Z,1011.76
2019-02-19T11:39:39.534Z,1011.66
2019-02-19T11:40:39.538Z,1011.70
2019-02-19T11:41:39.514Z,1011.73
2019-02-19T11:42:39.542Z,1011.70
2019-02-19T11:43:39.490Z,1011.64
2019-02-19T11:44:39.480Z,1011.64
2019-02-19T11:45:39.468Z,1011.68
2019-02-19T11:46:39.456Z,1011.64
2019-02-19T11:47:39.444Z,1011.69
2019-02-19T11:48:39.476Z,1011.68
2019-02-19T11:49:39.424Z,1011.70
2019-02-19T11:50:39.411Z,1011.69
2019-02-19T11:51:39.402Z,1011.65
2019-02-19T11:52:39.389Z,1011.71
2019-02-19T11:53:39.378Z,1011.75
2019-02-19T11:54:39.430Z,1011.64
2019-02-19T11:55:39.363Z,1011.69
2019-02-19T11:56:39.342Z,1011.73
2019-02-19T11:57:39.337Z,1011.73
2019-02-19T11:58:39.320Z,1011.68
2019-02-19T11:59:39.319Z,1011.69
2019-02-19T12:00:39.351Z,1011.67
2019-02-19T12:01:39.289Z,1011.66
2019-02-19T12:02:39.279Z,1011.64
2019-02-19T12:03:39.265Z,1011.62
2019-02-19T12:04:39.254Z,1011.61
2019-02-19T12:05:39.241Z,1011.62